Time;durP1;ratioP1;P1;durP2;ratioP2;P2;SDS_P1;SDS_P2;PMS_P1;PMS_P2;Temp;Humidity;BMP_temperature;BMP_pressure;BME280_temperature;BME280_humidity;BME280_pressure;Samples;Min_cycle;Max_cycle;Signal;HPM_P1;HPM_P2
2022/06/20 00:01:42;;;;;;;8.10;4.50;;;;;;;;;;5021897;28;20116;-66
2022/06/20 00:04:13;;;;;;;10.65;6.10;;;;;;;;;;5021083;28;20013;-65
2022/06/20 00:06:39;;;;;;;6.03;4.20;;;;;;;;;;5021708;28;20029;-65
2022/06/20 00:09:05;;;;;;;9.10;5.15;;;;;;;;;;5021024;28;20659;-65
2022/06/20 00:11:35;;;;;;;11.10;4.57;;;;;;;;;;5020762;28;20026;-66
2022/06/20 00:14:01;;;;;;;7.57;4.18;;;;;;;;;;5020738;28;20030;-65
2022/06/20 00:16:28;;;;;;;6.47;4.15;;;;;;;;;;5021112;28;20131;-65
2022/06/20 00:18:54;;;;;;;9.82;4.32;;;;;;;;;;5019268;28;20472;-65
2022/06/20 00:21:21;;;;;;;7.78;5.10;;;;;;;;;;5021396;28;20100;-65
2022/06/20 00:23:47;;;;;;;9.60;4.20;;;;;;;;;;5021997;28;20021;-67
2022/06/20 00:26:14;;;;;;;8.15;4.20;;;;;;;;;;5025444;28;20070;-64
2022/06/20 00:28:41;;;;;;;9.73;4.07;;;;;;;;;;5003316;28;20120;-64
2022/06/20 00:31:07;;;;;;;6.95;4.82;;;;;;;;;;5018937;28;20536;-65
2022/06/20 00:33:33;;;;;;;10.23;4.60;;;;;;;;;;5022796;28;20351;-66
2022/06/20 00:35:59;;;;;;;7.00;4.40;;;;;;;;;;5022511;28;20443;-66
2022/06/20 00:38:26;;;;;;;6.60;4.63;;;;;;;;;;5024635;28;20026;-66
2022/06/20 00:40:54;;;;;;;9.25;4.75;;;;;;;;;;5018594;28;20076;-66
2022/06/20 00:43:39;;;;;;;7.57;5.07;;;;;;;;;;5023246;28;20034;-66
2022/06/20 00:46:08;;;;;;;6.85;4.63;;;;;;;;;;5021335;28;20359;-65
2022/06/20 00:48:39;;;;;;;8.13;4.45;;;;;;;;;;5021272;28;20470;-67
2022/06/20 00:51:09;;;;;;;11.30;5.22;;;;;;;;;;5019480;28;20035;-66
2022/06/20 00:53:49;;;;;;;7.97;5.30;;;;;;;;;;5021926;28;20108;-66
2022/06/20 00:56:38;;;;;;;8.45;4.57;;;;;;;;;;5023709;28;20118;-65
2022/06/20 00:59:07;;;;;;;6.45;4.30;;;;;;;;;;4991809;28;20470;-63
2022/06/20 01:01:36;;;;;;;9.43;4.90;;;;;;;;;;5021597;28;20022;-65
2022/06/20 01:04:06;;;;;;;12.45;5.43;;;;;;;;;;5021500;28;20399;-66
2022/06/20 01:06:34;;;;;;;7.50;4.63;;;;;;;;;;5024288;28;20042;-66
2022/06/20 01:09:05;;;;;;;9.20;4.35;;;;;;;;;;5023958;28;20022;-66
2022/06/20 01:11:40;;;;;;;9.30;4.47;;;;;;;;;;5025046;28;20017;-65
2022/06/20 01:14:39;;;;;;;11.00;5.15;;;;;;;;;;5014904;28;20790;-64
2022/06/20 01:17:07;;;;;;;11.63;5.45;;;;;;;;;;4992196;28;20033;-64
2022/06/20 01:19:33;;;;;;;16.30;7.45;;;;;;;;;;5017638;28;20577;-65
2022/06/20 01:22:01;;;;;;;11.85;5.22;;;;;;;;;;5020947;28;20109;-64
2022/06/20 01:24:30;;;;;;;13.00;5.55;;;;;;;;;;5024946;28;20021;-65
2022/06/20 01:27:11;;;;;;;10.27;6.15;;;;;;;;;;5026320;28;20432;-65
2022/06/20 01:29:37;;;;;;;13.65;6.53;;;;;;;;;;5027704;28;20044;-66
2022/06/20 01:32:04;;;;;;;11.85;5.53;;;;;;;;;;5026010;28;20057;-66
2022/06/20 01:34:32;;;;;;;10.95;5.57;;;;;;;;;;5022816;28;20648;-66
2022/06/20 01:39:48;;;;;;;12.73;5.68;;;;;;;;;;5024562;28;20552;-69
2022/06/20 01:42:20;;;;;;;14.00;5.90;;;;;;;;;;5023715;28;20389;-66
2022/06/20 01:45:57;;;;;;;13.05;5.28;;;;;;;;;;5024494;28;20026;-66
2022/06/20 01:47:52;;;;;;;8.70;5.45;;;;;;;;;;5024068;28;20117;-67
2022/06/20 01:50:18;;;;;;;13.00;5.13;;;;;;;;;;5025068;28;20067;-68
2022/06/20 01:52:45;;;;;;;11.27;5.60;;;;;;;;;;5026226;28;20018;-67
2022/06/20 01:55:14;;;;;;;9.25;4.97;;;;;;;;;;5023173;28;20967;-66
2022/06/20 01:57:42;;;;;;;10.60;4.78;;;;;;;;;;5026759;28;20021;-66
2022/06/20 02:00:19;;;;;;;11.30;4.22;;;;;;;;;;5033167;28;20025;-66
2022/06/20 02:02:48;;;;;;;10.00;4.88;;;;;;;;;;5031257;28;20053;-65
2022/06/20 02:05:17;;;;;;;6.90;4.38;;;;;;;;;;5034141;28;20045;-65
2022/06/20 02:07:43;;;;;;;11.70;4.70;;;;;;;;;;5034062;28;20030;-65
2022/06/20 02:10:12;;;;;;;11.27;5.30;;;;;;;;;;5029452;28;20026;-65
2022/06/20 02:12:38;;;;;;;11.82;4.43;;;;;;;;;;5009340;28;20374;-66
2022/06/20 02:15:05;;;;;;;12.27;4.60;;;;;;;;;;5022975;28;20033;-66
2022/06/20 02:17:36;;;;;;;8.23;4.55;;;;;;;;;;5024449;28;20026;-65
2022/06/20 02:20:05;;;;;;;8.27;4.53;;;;;;;;;;5021094;28;20029;-65
2022/06/20 02:22:31;;;;;;;8.32;4.40;;;;;;;;;;5024650;28;20072;-65
2022/06/20 02:25:02;;;;;;;6.90;4.22;;;;;;;;;;5023028;28;20104;-65
2022/06/20 02:27:31;;;;;;;9.07;4.57;;;;;;;;;;5022230;28;20053;-66
2022/06/20 02:29:58;;;;;;;11.35;4.55;;;;;;;;;;5022891;28;20123;-66
2022/06/20 02:32:26;;;;;;;9.35;4.30;;;;;;;;;;5023894;28;20026;-66
2022/06/20 02:34:53;;;;;;;13.07;4.53;;;;;;;;;;5022249;28;20038;-69
2022/06/20 02:37:23;;;;;;;11.57;4.60;;;;;;;;;;5021691;28;20061;-66
2022/06/20 02:39:50;;;;;;;9.77;5.05;;;;;;;;;;5020609;28;20430;-70
2022/06/20 02:42:26;;;;;;;10.25;4.57;;;;;;;;;;5027220;28;20026;-67
2022/06/20 02:44:53;;;;;;;9.50;4.78;;;;;;;;;;5020080;28;20071;-69
2022/06/20 02:47:20;;;;;;;10.70;4.53;;;;;;;;;;5024613;28;20084;-67
2022/06/20 02:49:46;;;;;;;11.48;4.32;;;;;;;;;;5021839;28;20412;-66
2022/06/20 02:52:16;;;;;;;12.98;4.63;;;;;;;;;;5027551;28;20569;-67
2022/06/20 02:54:42;;;;;;;13.00;4.60;;;;;;;;;;5022589;28;20375;-67
2022/06/20 02:57:12;;;;;;;10.07;4.70;;;;;;;;;;5021718;28;20037;-67
2022/06/20 02:59:42;;;;;;;10.48;4.65;;;;;;;;;;5021937;28;20045;-66
2022/06/20 03:02:11;;;;;;;10.05;4.55;;;;;;;;;;5020481;28;20021;-67
2022/06/20 03:04:39;;;;;;;10.68;4.82;;;;;;;;;;5022477;28;20032;-67
2022/06/20 03:07:16;;;;;;;13.07;4.50;;;;;;;;;;5019706;28;20053;-67
2022/06/20 03:09:42;;;;;;;10.70;4.03;;;;;;;;;;5022787;28;20428;-67
2022/06/20 03:12:09;;;;;;;8.98;5.38;;;;;;;;;;5022197;28;20025;-66
2022/06/20 03:14:38;;;;;;;8.25;4.00;;;;;;;;;;5023017;28;20026;-61
2022/06/20 03:17:06;;;;;;;10.68;4.53;;;;;;;;;;5020113;28;20152;-59
2022/06/20 03:19:33;;;;;;;14.90;5.05;;;;;;;;;;5024957;28;20379;-62
2022/06/20 03:22:04;;;;;;;13.30;5.68;;;;;;;;;;5020843;28;20013;-63
2022/06/20 03:24:31;;;;;;;11.48;5.68;;;;;;;;;;5020849;28;20111;-62
2022/06/20 03:26:57;;;;;;;13.57;5.15;;;;;;;;;;5020246;28;20025;-62
2022/06/20 03:29:25;;;;;;;11.75;4.35;;;;;;;;;;5030784;28;20046;-67
2022/06/20 03:31:51;;;;;;;8.77;4.50;;;;;;;;;;5031168;28;20022;-68
2022/06/20 03:34:17;;;;;;;10.73;4.65;;;;;;;;;;5032523;28;20470;-67
2022/06/20 03:36:46;;;;;;;11.10;4.45;;;;;;;;;;5032597;28;20056;-68
2022/06/20 03:39:13;;;;;;;8.48;3.75;;;;;;;;;;5031584;28;20152;-66
2022/06/20 03:41:39;;;;;;;13.23;3.97;;;;;;;;;;5032376;28;20027;-64
2022/06/20 03:44:15;;;;;;;7.35;4.28;;;;;;;;;;5031356;28;20080;-64
2022/06/20 03:47:01;;;;;;;9.93;4.90;;;;;;;;;;5035403;28;20470;-65
2022/06/20 03:49:29;;;;;;;11.77;5.05;;;;;;;;;;5012071;28;20524;-64
2022/06/20 03:52:21;;;;;;;10.45;5.10;;;;;;;;;;5026853;28;20030;-67
2022/06/20 03:54:52;;;;;;;9.95;4.35;;;;;;;;;;5030108;28;20041;-66
2022/06/20 03:57:21;;;;;;;13.88;5.25;;;;;;;;;;5031755;28;20036;-63
2022/06/20 04:00:14;;;;;;;10.93;4.22;;;;;;;;;;5032070;28;20100;-69
2022/06/20 04:02:44;;;;;;;10.00;5.60;;;;;;;;;;5028976;28;20037;-67
2022/06/20 04:05:22;;;;;;;9.80;4.75;;;;;;;;;;5031242;28;20022;-64
2022/06/20 04:07:58;;;;;;;23.77;6.13;;;;;;;;;;5031741;28;20100;-64
2022/06/20 04:13:35;;;;;;;11.15;5.25;;;;;;;;;;5031596;28;20037;-66
2022/06/20 04:16:01;;;;;;;13.52;4.60;;;;;;;;;;5031119;28;20144;-64
2022/06/20 04:18:43;;;;;;;8.38;4.50;;;;;;;;;;5031475;28;20104;-64
2022/06/20 04:21:14;;;;;;;14.40;5.50;;;;;;;;;;5044786;28;20040;-65
2022/06/20 04:23:58;;;;;;;8.65;4.57;;;;;;;;;;5038080;28;20074;-65
2022/06/20 04:26:27;;;;;;;10.32;5.25;;;;;;;;;;5031727;28;20548;-64
2022/06/20 04:28:57;;;;;;;12.10;4.80;;;;;;;;;;5031143;28;20061;-68
2022/06/20 04:31:41;;;;;;;11.90;5.25;;;;;;;;;;5032186;28;20029;-63
2022/06/20 04:34:19;;;;;;;11.57;4.85;;;;;;;;;;5029503;28;20037;-67
2022/06/20 04:37:12;;;;;;;6.75;4.40;;;;;;;;;;5031732;28;20104;-66
2022/06/20 04:39:39;;;;;;;9.48;4.18;;;;;;;;;;5033831;28;20029;-64
2022/06/20 04:42:11;;;;;;;11.98;5.45;;;;;;;;;;5034835;28;20033;-67
2022/06/20 04:44:44;;;;;;;12.50;4.43;;;;;;;;;;5035672;28;20072;-66
2022/06/20 04:47:10;;;;;;;7.57;4.47;;;;;;;;;;5041737;28;20082;-64
2022/06/20 04:49:38;;;;;;;9.88;4.63;;;;;;;;;;5046119;28;20029;-65
2022/06/20 04:52:04;;;;;;;9.00;4.20;;;;;;;;;;5034730;28;20116;-65
2022/06/20 04:54:30;;;;;;;9.88;4.00;;;;;;;;;;5035692;28;20044;-64
2022/06/20 04:56:56;;;;;;;7.88;4.88;;;;;;;;;;5034906;28;20393;-69
2022/06/20 04:59:26;;;;;;;12.05;4.97;;;;;;;;;;5035431;28;20035;-67
2022/06/20 05:01:52;;;;;;;7.43;3.50;;;;;;;;;;5035265;28;20109;-66
2022/06/20 05:04:32;;;;;;;7.22;3.60;;;;;;;;;;5034320;28;20025;-66
2022/06/20 05:07:03;;;;;;;8.02;4.40;;;;;;;;;;5021311;28;20037;-68
2022/06/20 05:09:36;;;;;;;10.10;4.07;;;;;;;;;;5031466;28;20026;-65
2022/06/20 05:12:08;;;;;;;8.40;4.18;;;;;;;;;;5022613;28;20137;-66
2022/06/20 05:14:41;;;;;;;12.35;4.45;;;;;;;;;;5015193;28;20025;-68
2022/06/20 05:17:12;;;;;;;11.00;3.90;;;;;;;;;;5014525;28;20537;-68
2022/06/20 05:19:41;;;;;;;13.07;5.72;;;;;;;;;;5049939;28;20079;-65
2022/06/20 05:22:12;;;;;;;9.75;3.90;;;;;;;;;;5042675;28;20069;-66
2022/06/20 05:24:39;;;;;;;8.63;4.45;;;;;;;;;;5023519;28;20097;-68
2022/06/20 05:27:18;;;;;;;9.30;5.05;;;;;;;;;;5024372;28;20122;-66
2022/06/20 05:29:44;;;;;;;8.95;4.85;;;;;;;;;;5027446;28;20100;-68
2022/06/20 05:32:22;;;;;;;15.55;5.20;;;;;;;;;;5033261;28;20021;-68
2022/06/20 05:34:53;;;;;;;7.00;4.13;;;;;;;;;;5034201;28;20112;-69
2022/06/20 05:37:25;;;;;;;9.82;4.68;;;;;;;;;;5013912;28;20030;-68
2022/06/20 05:39:55;;;;;;;9.68;4.43;;;;;;;;;;5017168;28;20034;-68
2022/06/20 05:42:21;;;;;;;13.65;4.47;;;;;;;;;;5024775;28;20064;-66
2022/06/20 05:44:48;;;;;;;9.98;4.88;;;;;;;;;;5034238;28;20560;-65
2022/06/20 05:47:19;;;;;;;10.55;4.43;;;;;;;;;;5025814;28;20037;-70
2022/06/20 05:49:48;;;;;;;11.52;4.40;;;;;;;;;;5033062;28;20031;-62
2022/06/20 05:52:20;;;;;;;8.50;4.20;;;;;;;;;;5033800;28;20076;-62
2022/06/20 05:54:45;;;;;;;;;;;;;;;;;;5034348;28;20448;-64
2022/06/20 05:57:13;;;;;;;10.05;5.03;;;;;;;;;;5033398;28;19913;-61
2022/06/20 05:59:42;;;;;;;11.95;5.30;;;;;;;;;;5033225;28;20026;-65
2022/06/20 06:02:14;;;;;;;8.57;4.60;;;;;;;;;;5032051;28;20053;-66
2022/06/20 06:04:43;;;;;;;8.00;4.50;;;;;;;;;;5028054;28;20034;-61
2022/06/20 06:07:09;;;;;;;11.55;5.22;;;;;;;;;;5032110;28;20070;-63
2022/06/20 06:09:55;;;;;;;8.65;4.47;;;;;;;;;;5033077;28;20379;-63
2022/06/20 06:12:26;;;;;;;10.90;4.35;;;;;;;;;;5026518;28;20131;-60
2022/06/20 06:14:55;;;;;;;14.43;5.65;;;;;;;;;;5029261;28;20026;-61
2022/06/20 06:17:25;;;;;;;11.77;4.78;;;;;;;;;;5020553;28;20069;-62
2022/06/20 06:19:59;;;;;;;8.45;5.15;;;;;;;;;;5016379;28;20064;-63
2022/06/20 06:22:37;;;;;;;12.13;4.50;;;;;;;;;;5032039;28;20083;-62
2022/06/20 06:25:15;;;;;;;8.43;4.28;;;;;;;;;;5025976;28;20022;-61
2022/06/20 06:27:41;;;;;;;12.48;5.30;;;;;;;;;;5037407;28;20045;-63
2022/06/20 06:30:14;;;;;;;9.18;4.55;;;;;;;;;;5017810;28;20049;-63
2022/06/20 06:32:51;;;;;;;10.10;4.32;;;;;;;;;;5031998;28;20343;-64
2022/06/20 06:35:17;;;;;;;12.68;5.18;;;;;;;;;;5029990;28;20018;-65
2022/06/20 06:37:49;;;;;;;16.00;4.72;;;;;;;;;;5025312;28;20433;-65
2022/06/20 06:40:30;;;;;;;8.70;4.82;;;;;;;;;;5026839;28;20032;-65
2022/06/20 06:42:58;;;;;;;9.80;3.95;;;;;;;;;;5026941;28;20034;-65
2022/06/20 06:45:27;;;;;;;9.40;4.32;;;;;;;;;;5023637;28;20022;-65
2022/06/20 06:47:56;;;;;;;8.63;4.55;;;;;;;;;;5030350;28;20416;-65
2022/06/20 06:50:28;;;;;;;8.73;4.30;;;;;;;;;;5024680;28;20632;-65
2022/06/20 06:52:58;;;;;;;8.05;4.57;;;;;;;;;;5033056;28;20100;-65
2022/06/20 06:55:38;;;;;;;10.73;4.80;;;;;;;;;;5028105;28;20022;-66
2022/06/20 06:58:11;;;;;;;8.18;4.80;;;;;;;;;;5029754;28;20033;-65
2022/06/20 07:00:39;;;;;;;10.32;5.13;;;;;;;;;;5032492;28;20022;-64
2022/06/20 07:03:38;;;;;;;15.05;5.05;;;;;;;;;;5028569;28;20029;-64
2022/06/20 07:06:06;;;;;;;13.95;5.65;;;;;;;;;;4986476;28;20128;-67
2022/06/20 07:08:39;;;;;;;14.55;6.15;;;;;;;;;;5025798;28;20026;-64
2022/06/20 07:11:14;;;;;;;10.20;5.68;;;;;;;;;;5022016;28;20111;-64
2022/06/20 07:13:40;;;;;;;11.98;5.82;;;;;;;;;;5025439;28;20096;-65
2022/06/20 07:16:14;;;;;;;10.48;5.78;;;;;;;;;;5030736;28;20443;-64
2022/06/20 07:18:40;;;;;;;14.25;5.80;;;;;;;;;;5030322;28;20049;-64
2022/06/20 07:21:06;;;;;;;13.23;5.50;;;;;;;;;;5029405;28;20017;-64
2022/06/20 07:23:34;;;;;;;11.55;5.72;;;;;;;;;;5030869;28;20421;-64
2022/06/20 07:26:00;;;;;;;11.57;5.00;;;;;;;;;;5025089;28;20038;-68
2022/06/20 07:28:34;;;;;;;18.70;6.05;;;;;;;;;;5029491;28;20060;-64
2022/06/20 07:31:05;;;;;;;10.35;5.25;;;;;;;;;;5029147;28;20029;-67
2022/06/20 07:33:33;;;;;;;14.63;6.13;;;;;;;;;;5027602;28;20018;-64
2022/06/20 07:36:00;;;;;;;18.73;5.28;;;;;;;;;;5030500;28;20162;-64
2022/06/20 07:38:30;;;;;;;13.88;5.72;;;;;;;;;;5023272;28;20028;-65
2022/06/20 07:40:58;;;;;;;9.60;5.13;;;;;;;;;;5027968;28;20025;-64
2022/06/20 07:43:29;;;;;;;9.77;4.47;;;;;;;;;;5022791;28;20029;-63
2022/06/20 07:45:55;;;;;;;12.57;5.07;;;;;;;;;;5025186;28;20470;-64
2022/06/20 07:48:29;;;;;;;8.10;5.45;;;;;;;;;;5023995;28;20086;-64
2022/06/20 07:50:59;;;;;;;11.60;4.72;;;;;;;;;;5030011;28;20041;-63
2022/06/20 07:53:31;;;;;;;11.45;4.82;;;;;;;;;;5027644;28;20009;-62
2022/06/20 07:55:59;;;;;;;9.75;4.88;;;;;;;;;;5030900;28;20482;-64
2022/06/20 07:58:30;;;;;;;12.15;5.32;;;;;;;;;;5028521;28;20020;-64
2022/06/20 08:00:56;;;;;;;12.07;4.22;;;;;;;;;;5030251;28;20039;-64
2022/06/20 08:03:22;;;;;;;11.63;4.82;;;;;;;;;;5019982;28;20053;-64
2022/06/20 08:06:00;;;;;;;7.60;3.92;;;;;;;;;;5026871;28;20482;-64
2022/06/20 08:08:29;;;;;;;11.52;4.75;;;;;;;;;;5030265;28;20028;-64
2022/06/20 08:11:00;;;;;;;8.30;4.65;;;;;;;;;;5030321;28;20124;-64
2022/06/20 08:13:30;;;;;;;14.30;5.13;;;;;;;;;;5027775;28;20033;-63
2022/06/20 08:16:00;;;;;;;6.55;3.97;;;;;;;;;;5029126;28;20644;-63
2022/06/20 08:18:26;;;;;;;10.43;4.35;;;;;;;;;;5027384;28;20021;-63
2022/06/20 08:21:15;;;;;;;7.45;4.13;;;;;;;;;;5027511;28;20366;-64
2022/06/20 08:23:45;;;;;;;10.27;3.55;;;;;;;;;;5022265;28;20136;-64
2022/06/20 08:26:12;;;;;;;12.25;4.53;;;;;;;;;;5030037;28;20052;-64
2022/06/20 08:28:43;;;;;;;9.65;4.40;;;;;;;;;;5031742;28;20434;-63
2022/06/20 08:31:09;;;;;;;7.05;3.90;;;;;;;;;;5029241;28;20025;-64
2022/06/20 08:33:58;;;;;;;5.18;4.07;;;;;;;;;;5029551;28;20034;-64
2022/06/20 08:36:29;;;;;;;7.22;3.95;;;;;;;;;;5018372;28;20041;-63
2022/06/20 08:38:56;;;;;;;;;;;;;;;;;;5025489;28;20381;-63
2022/06/20 08:41:40;;;;;;;9.90;3.90;;;;;;;;;;5019988;28;19919;-64
2022/06/20 08:44:12;;;;;;;6.15;3.95;;;;;;;;;;5020780;28;20026;-64
2022/06/20 08:46:47;;;;;;;9.52;4.05;;;;;;;;;;5024289;28;20057;-64
2022/06/20 08:49:32;;;;;;;6.60;3.50;;;;;;;;;;5023065;28;20496;-63
2022/06/20 08:52:19;;;;;;;7.72;3.65;;;;;;;;;;5028461;28;20037;-64
2022/06/20 08:54:45;;;;;;;6.43;3.42;;;;;;;;;;5024534;28;20052;-64
2022/06/20 08:57:13;;;;;;;8.50;4.45;;;;;;;;;;5027303;28;20466;-64
2022/06/20 08:59:48;;;;;;;9.52;3.45;;;;;;;;;;5020993;28;20028;-64
2022/06/20 09:02:21;;;;;;;4.82;3.72;;;;;;;;;;5021468;28;20036;-62
2022/06/20 09:05:06;;;;;;;7.68;3.78;;;;;;;;;;5022713;28;20106;-63
2022/06/20 09:07:54;;;;;;;5.30;3.25;;;;;;;;;;5022192;28;20091;-64
2022/06/20 09:10:40;;;;;;;12.50;3.63;;;;;;;;;;5009683;28;20042;-64
2022/06/20 09:13:18;;;;;;;7.88;4.63;;;;;;;;;;5025501;28;20031;-64
2022/06/20 09:16:03;;;;;;;6.82;3.40;;;;;;;;;;5019094;28;20074;-63
2022/06/20 09:18:35;;;;;;;6.50;4.05;;;;;;;;;;5025482;28;20104;-63
2022/06/20 09:21:11;;;;;;;7.53;3.70;;;;;;;;;;5025819;28;20032;-67
2022/06/20 09:23:47;;;;;;;10.45;3.92;;;;;;;;;;5029416;28;20109;-63
2022/06/20 09:26:16;;;;;;;7.82;3.80;;;;;;;;;;5029013;28;20034;-63
2022/06/20 09:28:46;;;;;;;7.10;4.18;;;;;;;;;;5029053;28;20519;-63
2022/06/20 09:31:42;;;;;;;6.28;4.40;;;;;;;;;;5029394;28;20478;-64
2022/06/20 09:34:20;;;;;;;9.93;3.80;;;;;;;;;;5017880;28;20037;-63
2022/06/20 09:36:58;;;;;;;6.03;3.90;;;;;;;;;;5024939;28;20057;-63
2022/06/20 09:39:43;;;;;;;8.55;3.65;;;;;;;;;;5029022;28;20026;-63
2022/06/20 09:42:09;;;;;;;5.20;3.22;;;;;;;;;;5022475;28;20111;-64
2022/06/20 09:44:38;;;;;;;6.40;4.03;;;;;;;;;;5031259;28;20076;-63
2022/06/20 09:47:08;;;;;;;6.20;3.75;;;;;;;;;;5029344;28;20048;-65
2022/06/20 09:49:50;;;;;;;5.40;3.58;;;;;;;;;;5025920;28;20048;-64
2022/06/20 09:52:22;;;;;;;6.13;3.28;;;;;;;;;;5031338;28;20071;-63
2022/06/20 09:55:12;;;;;;;7.20;3.40;;;;;;;;;;5030684;28;20096;-63
2022/06/20 09:57:38;;;;;;;6.40;3.17;;;;;;;;;;5028631;28;20025;-63
2022/06/20 10:00:06;;;;;;;5.53;3.10;;;;;;;;;;5032333;28;20025;-65
2022/06/20 10:02:41;;;;;;;5.03;2.95;;;;;;;;;;5032575;28;20021;-64
2022/06/20 10:05:19;;;;;;;5.38;3.33;;;;;;;;;;5029611;28;20478;-63
2022/06/20 10:07:54;;;;;;;4.70;3.08;;;;;;;;;;5034644;28;20033;-63
2022/06/20 10:10:23;;;;;;;5.22;3.47;;;;;;;;;;5035259;28;20286;-63
2022/06/20 10:13:00;;;;;;;6.43;3.35;;;;;;;;;;5023629;28;20071;-63
2022/06/20 10:15:44;;;;;;;5.88;3.28;;;;;;;;;;5024812;28;20118;-63
2022/06/20 10:18:10;;;;;;;6.80;3.45;;;;;;;;;;5023868;28;20034;-63
2022/06/20 10:20:47;;;;;;;4.47;3.83;;;;;;;;;;5025071;28;20025;-63
2022/06/20 10:23:21;;;;;;;6.05;3.63;;;;;;;;;;5030913;28;20060;-63
2022/06/20 10:25:56;;;;;;;4.07;2.83;;;;;;;;;;5032013;28;20424;-63
2022/06/20 10:28:41;;;;;;;4.05;3.03;;;;;;;;;;5012202;28;20649;-63
2022/06/20 10:31:19;;;;;;;6.28;2.83;;;;;;;;;;5029541;28;20037;-59
2022/06/20 10:33:48;;;;;;;7.50;2.90;;;;;;;;;;5028236;28;20017;-60
2022/06/20 10:36:16;;;;;;;5.53;3.40;;;;;;;;;;5027752;28;20036;-58
2022/06/20 10:39:08;;;;;;;4.22;2.92;;;;;;;;;;5027853;28;20026;-60
2022/06/20 10:41:34;;;;;;;;;;;;;;;;;;5026719;28;20032;-60
2022/06/20 10:44:12;;;;;;;4.50;2.78;;;;;;;;;;5031671;28;19909;-64
2022/06/20 10:46:55;;;;;;;3.85;2.90;;;;;;;;;;5028694;28;20072;-61
2022/06/20 10:49:39;;;;;;;7.28;3.20;;;;;;;;;;5029950;28;20084;-60
2022/06/20 10:52:17;;;;;;;5.20;3.25;;;;;;;;;;5030191;28;20026;-61
2022/06/20 10:54:55;;;;;;;3.50;2.80;;;;;;;;;;5026962;28;20464;-60
2022/06/20 10:57:24;;;;;;;6.20;2.85;;;;;;;;;;5025623;28;20282;-60
2022/06/20 11:00:05;;;;;;;4.85;2.60;;;;;;;;;;5021059;28;20025;-60
2022/06/20 11:02:31;;;;;;;;;;;;;;;;;;5026155;28;20379;-60
2022/06/20 11:05:00;;;;;;;6.25;3.08;;;;;;;;;;5027872;28;19916;-61
2022/06/20 11:07:29;;;;;;;5.47;2.47;;;;;;;;;;5030392;28;20041;-60
2022/06/20 11:10:05;;;;;;;3.30;2.40;;;;;;;;;;5026778;28;20387;-60
2022/06/20 11:12:39;;;;;;;4.15;2.63;;;;;;;;;;5031075;28;20032;-60
2022/06/20 11:15:12;;;;;;;2.63;2.38;;;;;;;;;;5029896;28;20470;-60
2022/06/20 11:17:38;;;;;;;6.95;3.50;;;;;;;;;;5024971;28;20018;-58
2022/06/20 11:20:09;;;;;;;5.45;3.45;;;;;;;;;;5025093;28;20356;-64
2022/06/20 11:22:43;;;;;;;5.72;2.90;;;;;;;;;;5025786;28;20021;-60
2022/06/20 11:25:15;;;;;;;3.10;2.40;;;;;;;;;;5022736;28;20478;-60
2022/06/20 11:27:44;;;;;;;5.80;2.75;;;;;;;;;;5021385;28;20364;-61
2022/06/20 11:30:19;;;;;;;5.03;2.95;;;;;;;;;;5029186;28;20053;-60
2022/06/20 11:33:04;;;;;;;5.22;2.80;;;;;;;;;;5030834;28;20029;-60
2022/06/20 11:35:33;;;;;;;4.32;2.70;;;;;;;;;;5022538;28;20504;-59
2022/06/20 11:37:59;;;;;;;4.70;2.65;;;;;;;;;;5029743;28;20390;-64
2022/06/20 11:40:38;;;;;;;4.30;2.53;;;;;;;;;;5029483;28;20104;-60
2022/06/20 11:43:04;;;;;;;6.40;2.72;;;;;;;;;;5028412;28;20029;-60
2022/06/20 11:45:30;;;;;;;6.95;3.22;;;;;;;;;;5027799;28;20025;-60
2022/06/20 11:48:06;;;;;;;5.05;2.78;;;;;;;;;;5025208;28;20040;-60
2022/06/20 11:50:46;;;;;;;4.18;3.08;;;;;;;;;;5028887;28;20112;-60
2022/06/20 11:53:31;;;;;;;4.05;2.45;;;;;;;;;;5025489;28;20025;-60
2022/06/20 11:56:05;;;;;;;3.75;2.75;;;;;;;;;;5025749;28;20107;-61
2022/06/20 11:58:31;;;;;;;4.93;3.03;;;;;;;;;;5038552;28;20104;-61
2022/06/20 12:01:17;;;;;;;6.07;2.95;;;;;;;;;;5022752;28;20109;-62
2022/06/20 12:04:07;;;;;;;6.10;2.42;;;;;;;;;;5021876;28;20452;-60
2022/06/20 12:06:40;;;;;;;5.05;3.13;;;;;;;;;;5030762;28;20030;-60
2022/06/20 12:09:14;;;;;;;4.80;2.80;;;;;;;;;;5027661;28;20042;-60
2022/06/20 12:11:47;;;;;;;5.93;2.55;;;;;;;;;;5030135;28;20018;-61
2022/06/20 12:14:13;;;;;;;4.03;2.50;;;;;;;;;;5028334;28;20108;-60
2022/06/20 12:16:57;;;;;;;4.50;2.40;;;;;;;;;;5028232;28;20153;-59
2022/06/20 12:25:00;;;;;;;5.82;2.72;;;;;;;;;;5026458;28;20032;-60
2022/06/20 12:27:27;;;;;;;7.35;3.35;;;;;;;;;;5022352;28;20041;-60
2022/06/20 12:29:53;;;;;;;5.25;2.28;;;;;;;;;;5025831;28;20061;-60
2022/06/20 12:32:28;;;;;;;5.60;2.40;;;;;;;;;;5026139;28;20025;-60
2022/06/20 12:34:56;;;;;;;5.70;2.75;;;;;;;;;;5029881;28;20060;-49
2022/06/20 12:37:41;;;;;;;6.68;2.20;;;;;;;;;;5026543;28;20659;-53
2022/06/20 12:40:19;;;;;;;4.28;2.47;;;;;;;;;;5028848;28;20033;-46
2022/06/20 12:42:59;;;;;;;7.13;2.45;;;;;;;;;;5024331;28;20472;-52
2022/06/20 12:45:28;;;;;;;10.23;4.07;;;;;;;;;;5030461;28;20060;-50
2022/06/20 12:48:05;;;;;;;9.38;3.35;;;;;;;;;;5021693;28;20025;-54
2022/06/20 12:50:43;;;;;;;6.07;2.67;;;;;;;;;;5028765;28;20029;-53
2022/06/20 12:53:22;;;;;;;7.18;2.50;;;;;;;;;;5025873;28;20021;-50
2022/06/20 12:56:06;;;;;;;7.10;2.58;;;;;;;;;;5023668;28;20038;-52
2022/06/20 12:58:43;;;;;;;10.05;2.50;;;;;;;;;;5020162;28;20037;-52
2022/06/20 13:01:14;;;;;;;5.32;2.70;;;;;;;;;;5031174;28;20025;-54
2022/06/20 13:03:40;;;;;;;;;;;;;;;;;;5032844;28;20041;-53
2022/06/20 13:06:24;;;;;;;6.90;3.58;;;;;;;;;;5028303;28;19965;-53
2022/06/20 13:08:58;;;;;;;4.05;2.63;;;;;;;;;;5023864;28;20520;-50
2022/06/20 13:11:31;;;;;;;4.90;2.47;;;;;;;;;;5029095;28;20422;-54
2022/06/20 13:14:03;;;;;;;9.25;2.80;;;;;;;;;;5028949;28;20036;-52
2022/06/20 13:16:35;;;;;;;12.70;2.45;;;;;;;;;;5027739;28;20029;-53
2022/06/20 13:19:19;;;;;;;3.92;2.65;;;;;;;;;;5020185;28;20021;-54
2022/06/20 13:21:58;;;;;;;5.03;2.30;;;;;;;;;;5027619;28;20037;-54
2022/06/20 13:24:47;;;;;;;5.45;2.40;;;;;;;;;;5027497;28;20140;-50
2022/06/20 13:27:24;;;;;;;6.18;2.17;;;;;;;;;;5027122;28;20045;-52
2022/06/20 13:30:14;;;;;;;4.35;2.20;;;;;;;;;;5031824;28;20045;-58
2022/06/20 13:32:44;;;;;;;3.78;2.08;;;;;;;;;;5022935;28;20041;-52
2022/06/20 13:35:20;;;;;;;7.70;3.13;;;;;;;;;;5032401;28;20033;-58
2022/06/20 13:37:56;;;;;;;8.32;2.50;;;;;;;;;;5033436;28;20044;-60
2022/06/20 13:40:43;;;;;;;8.35;2.50;;;;;;;;;;5034054;28;20057;-60
2022/06/20 13:43:18;;;;;;;7.00;3.25;;;;;;;;;;5026901;28;20025;-63
2022/06/20 13:45:52;;;;;;;4.50;2.47;;;;;;;;;;5036034;28;20061;-59
2022/06/20 13:48:28;;;;;;;7.88;2.45;;;;;;;;;;5020355;28;20029;-60
2022/06/20 13:51:07;;;;;;;4.93;2.13;;;;;;;;;;5021700;28;20091;-60
2022/06/20 13:53:52;;;;;;;4.70;1.95;;;;;;;;;;5033498;28;20061;-60
2022/06/20 13:56:24;;;;;;;4.75;2.28;;;;;;;;;;5032275;28;20493;-61
2022/06/20 13:58:53;;;;;;;4.85;2.58;;;;;;;;;;5033750;28;20071;-61
2022/06/20 14:01:20;;;;;;;6.25;1.88;;;;;;;;;;5032769;28;20030;-62
2022/06/20 14:03:57;;;;;;;4.70;2.42;;;;;;;;;;5033816;28;20109;-61
2022/06/20 14:06:29;;;;;;;7.30;2.38;;;;;;;;;;5032803;28;20052;-61
2022/06/20 14:09:00;;;;;;;5.70;2.28;;;;;;;;;;5031601;28;20414;-60
2022/06/20 14:11:40;;;;;;;4.80;2.40;;;;;;;;;;5032145;28;20101;-61
2022/06/20 14:14:17;;;;;;;6.78;2.83;;;;;;;;;;5032435;28;20415;-60
2022/06/20 14:16:46;;;;;;;6.85;2.83;;;;;;;;;;5033374;28;20497;-62
2022/06/20 14:19:15;;;;;;;4.82;2.45;;;;;;;;;;5032302;28;20112;-61
2022/06/20 14:21:44;;;;;;;4.43;2.55;;;;;;;;;;5033553;28;20173;-61
2022/06/20 14:24:16;;;;;;;3.60;1.92;;;;;;;;;;5032398;28;20068;-61
2022/06/20 14:26:43;;;;;;;5.65;1.90;;;;;;;;;;5032256;28;20069;-62
2022/06/20 14:29:21;;;;;;;4.88;2.22;;;;;;;;;;5031190;28;20053;-61
2022/06/20 14:32:06;;;;;;;3.17;2.00;;;;;;;;;;5033232;28;20036;-61
2022/06/20 14:37:51;;;;;;;5.00;1.73;;;;;;;;;;5032979;28;20029;-60
2022/06/20 14:40:29;;;;;;;4.50;2.05;;;;;;;;;;5032626;28;20036;-60
2022/06/20 14:42:58;;;;;;;4.65;2.33;;;;;;;;;;5031265;28;20398;-56
2022/06/20 14:45:28;;;;;;;3.33;2.22;;;;;;;;;;5031528;28;20473;-61
2022/06/20 14:47:59;;;;;;;2.95;2.03;;;;;;;;;;5024102;28;20029;-61
2022/06/20 14:50:33;;;;;;;4.80;2.63;;;;;;;;;;5032034;28;20025;-60
2022/06/20 14:53:06;;;;;;;3.22;1.90;;;;;;;;;;5025303;28;20025;-60
2022/06/20 14:55:41;;;;;;;2.92;1.83;;;;;;;;;;5033497;28;20026;-61
2022/06/20 14:58:13;;;;;;;1.80;1.40;;;;;;;;;;5030687;28;20025;-60
2022/06/20 15:00:45;;;;;;;2.35;1.77;;;;;;;;;;5033019;28;20060;-61
2022/06/20 15:03:19;;;;;;;2.65;1.60;;;;;;;;;;5031944;28;20029;-61
2022/06/20 15:05:55;;;;;;;2.92;1.67;;;;;;;;;;5032787;28;20099;-61
2022/06/20 15:08:24;;;;;;;3.42;1.90;;;;;;;;;;5032200;28;20087;-57
2022/06/20 15:10:54;;;;;;;1.98;1.77;;;;;;;;;;5033227;28;20458;-61
2022/06/20 15:13:36;;;;;;;2.90;1.77;;;;;;;;;;5030547;28;20051;-61
2022/06/20 15:16:19;;;;;;;3.08;1.80;;;;;;;;;;5027598;28;20303;-62
2022/06/20 15:18:47;;;;;;;3.10;1.70;;;;;;;;;;5032575;28;20401;-61
2022/06/20 15:21:29;;;;;;;6.63;2.55;;;;;;;;;;5031452;28;20022;-61
2022/06/20 15:24:11;;;;;;;2.00;1.50;;;;;;;;;;5024497;28;20039;-61
2022/06/20 15:26:37;;;;;;;;;;;;;;;;;;5032662;28;20065;-61
2022/06/20 15:29:14;;;;;;;3.78;2.05;;;;;;;;;;5031748;28;19953;-61